sensor_id;sensor_type;location;lat;lon;timestamp;temperature;humidity
62476;DHT22;50739;45.670;11.936;2024-02-15T00:04:10;6.98;86.97
62476;DHT22;50739;45.670;11.936;2024-02-15T00:09:14;6.75;87.39
62476;DHT22;50739;45.670;11.936;2024-02-15T00:14:16;6.68;86.93
62476;DHT22;50739;45.670;11.936;2024-02-15T00:19:19;6.66;87.56
62476;DHT22;50739;45.670;11.936;2024-02-15T00:24:24;6.52;87.97
62476;DHT22;50739;45.670;11.936;2024-02-15T00:29:26;6.25;88.42
62476;DHT22;50739;45.670;11.936;2024-02-15T00:34:30;6.42;88.38
62476;DHT22;50739;45.670;11.936;2024-02-15T00:39:33;6.32;88.44
62476;DHT22;50739;45.670;11.936;2024-02-15T00:44:36;6.52;87.75
62476;DHT22;50739;45.670;11.936;2024-02-15T00:49:38;6.59;87.19
62476;DHT22;50739;45.670;11.936;2024-02-15T00:54:42;6.46;87.18
62476;DHT22;50739;45.670;11.936;2024-02-15T00:59:44;6.21;88.48
62476;DHT22;50739;45.670;11.936;2024-02-15T01:04:47;6.07;88.63
62476;DHT22;50739;45.670;11.936;2024-02-15T01:09:51;5.97;89.33
62476;DHT22;50739;45.670;11.936;2024-02-15T01:14:54;6.03;88.49
62476;DHT22;50739;45.670;11.936;2024-02-15T01:19:56;6.18;88.44
62476;DHT22;50739;45.670;11.936;2024-02-15T01:25:00;6.28;88.01
62476;DHT22;50739;45.670;11.936;2024-02-15T01:30:03;6.15;88.31
62476;DHT22;50739;45.670;11.936;2024-02-15T01:35:06;6.36;87.99
62476;DHT22;50739;45.670;11.936;2024-02-15T01:40:12;6.15;88.81
62476;DHT22;50739;45.670;11.936;2024-02-15T01:45:15;6.11;91.63
62476;DHT22;50739;45.670;11.936;2024-02-15T01:50:18;6.04;92.52
62476;DHT22;50739;45.670;11.936;2024-02-15T01:55:24;6.21;91.97
62476;DHT22;50739;45.670;11.936;2024-02-15T02:00:26;6.35;91.87
62476;DHT22;50739;45.670;11.936;2024-02-15T02:05:29;6.34;91.23
62476;DHT22;50739;45.670;11.936;2024-02-15T02:10:33;6.07;93.29
62476;DHT22;50739;45.670;11.936;2024-02-15T02:15:36;6.14;93.62
62476;DHT22;50739;45.670;11.936;2024-02-15T02:20:38;6.14;93.53
62476;DHT22;50739;45.670;11.936;2024-02-15T02:25:42;6.36;93.07
62476;DHT22;50739;45.670;11.936;2024-02-15T02:30:47;6.57;92.32
62476;DHT22;50739;45.670;11.936;2024-02-15T02:35:49;6.39;91.81
62476;DHT22;50739;45.670;11.936;2024-02-15T02:40:53;6.57;91.96
62476;DHT22;50739;45.670;11.936;2024-02-15T02:45:55;6.65;91.59
62476;DHT22;50739;45.670;11.936;2024-02-15T02:50:58;6.63;91.79
62476;DHT22;50739;45.670;11.936;2024-02-15T02:56:01;6.46;91.40
62476;DHT22;50739;45.670;11.936;2024-02-15T03:01:04;6.29;91.72
62476;DHT22;50739;45.670;11.936;2024-02-15T03:06:07;6.26;92.36
62476;DHT22;50739;45.670;11.936;2024-02-15T03:11:11;6.42;91.61
62476;DHT22;50739;45.670;11.936;2024-02-15T03:16:15;6.52;90.93
62476;DHT22;50739;45.670;11.936;2024-02-15T03:21:18;6.35;90.75
62476;DHT22;50739;45.670;11.936;2024-02-15T03:26:29;6.13;91.37
62476;DHT22;50739;45.670;11.936;2024-02-15T03:31:33;6.20;91.16
62476;DHT22;50739;45.670;11.936;2024-02-15T03:36:37;6.31;90.69
62476;DHT22;50739;45.670;11.936;2024-02-15T03:41:41;6.29;90.11
62476;DHT22;50739;45.670;11.936;2024-02-15T03:46:43;6.25;90.17
62476;DHT22;50739;45.670;11.936;2024-02-15T03:51:51;6.04;90.15
62476;DHT22;50739;45.670;11.936;2024-02-15T03:56:57;5.78;91.23
62476;DHT22;50739;45.670;11.936;2024-02-15T04:01:59;5.83;90.68
62476;DHT22;50739;45.670;11.936;2024-02-15T04:07:03;5.66;91.78
62476;DHT22;50739;45.670;11.936;2024-02-15T04:12:08;5.90;90.91
62476;DHT22;50739;45.670;11.936;2024-02-15T04:17:11;5.86;91.26
62476;DHT22;50739;45.670;11.936;2024-02-15T04:22:14;5.93;90.98
62476;DHT22;50739;45.670;11.936;2024-02-15T04:27:18;5.96;90.78
62476;DHT22;50739;45.670;11.936;2024-02-15T04:32:21;5.62;90.82
62476;DHT22;50739;45.670;11.936;2024-02-15T04:37:24;5.59;90.67
62476;DHT22;50739;45.670;11.936;2024-02-15T04:42:31;5.58;90.71
62476;DHT22;50739;45.670;11.936;2024-02-15T04:47:35;5.60;91.05
62476;DHT22;50739;45.670;11.936;2024-02-15T04:52:37;5.52;90.88
62476;DHT22;50739;45.670;11.936;2024-02-15T04:57:41;5.45;90.94
62476;DHT22;50739;45.670;11.936;2024-02-15T05:02:43;5.38;90.92
62476;DHT22;50739;45.670;11.936;2024-02-15T05:07:45;5.43;90.51
62476;DHT22;50739;45.670;11.936;2024-02-15T05:12:51;5.25;91.24
62476;DHT22;50739;45.670;11.936;2024-02-15T05:17:54;5.07;92.15
62476;DHT22;50739;45.670;11.936;2024-02-15T05:22:57;5.20;91.83
62476;DHT22;50739;45.670;11.936;2024-02-15T05:28:01;5.38;91.09
62476;DHT22;50739;45.670;11.936;2024-02-15T05:33:04;5.15;90.63
62476;DHT22;50739;45.670;11.936;2024-02-15T05:38:11;5.25;90.77
62476;DHT22;50739;45.670;11.936;2024-02-15T05:43:17;5.27;90.39
62476;DHT22;50739;45.670;11.936;2024-02-15T05:48:20;5.15;90.95
62476;DHT22;50739;45.670;11.936;2024-02-15T05:53:23;5.18;92.01
62476;DHT22;50739;45.670;11.936;2024-02-15T05:58:27;5.25;92.03
62476;DHT22;50739;45.670;11.936;2024-02-15T06:03:29;5.31;91.20
62476;DHT22;50739;45.670;11.936;2024-02-15T06:08:33;5.18;91.32
62476;DHT22;50739;45.670;11.936;2024-02-15T06:13:37;5.27;91.68
62476;DHT22;50739;45.670;11.936;2024-02-15T06:18:39;5.35;91.55
62476;DHT22;50739;45.670;11.936;2024-02-15T06:23:41;5.17;91.42
62476;DHT22;50739;45.670;11.936;2024-02-15T06:28:45;5.17;91.10
62476;DHT22;50739;45.670;11.936;2024-02-15T06:34:05;5.36;91.59
62476;DHT22;50739;45.670;11.936;2024-02-15T06:39:25;5.28;91.80
62476;DHT22;50739;45.670;11.936;2024-02-15T06:44:43;5.17;92.27
62476;DHT22;50739;45.670;11.936;2024-02-15T06:49:46;5.46;91.89
62476;DHT22;50739;45.670;11.936;2024-02-15T06:54:51;5.34;92.63
62476;DHT22;50739;45.670;11.936;2024-02-15T06:59:55;5.39;93.16
62476;DHT22;50739;45.670;11.936;2024-02-15T07:04:58;5.65;92.43
62476;DHT22;50739;45.670;11.936;2024-02-15T07:10:00;5.69;92.37
62476;DHT22;50739;45.670;11.936;2024-02-15T07:15:06;5.80;91.47
62476;DHT22;50739;45.670;11.936;2024-02-15T07:20:11;5.76;92.12
62476;DHT22;50739;45.670;11.936;2024-02-15T07:25:18;5.86;91.79
62476;DHT22;50739;45.670;11.936;2024-02-15T07:30:22;5.81;92.09
62476;DHT22;50739;45.670;11.936;2024-02-15T07:35:24;5.97;91.92
62476;DHT22;50739;45.670;11.936;2024-02-15T07:40:26;6.13;91.56
62476;DHT22;50739;45.670;11.936;2024-02-15T07:45:31;6.28;91.51
62476;DHT22;50739;45.670;11.936;2024-02-15T07:50:36;6.42;90.99
62476;DHT22;50739;45.670;11.936;2024-02-15T07:55:39;6.56;90.45
62476;DHT22;50739;45.670;11.936;2024-02-15T08:00:43;6.70;90.28
62476;DHT22;50739;45.670;11.936;2024-02-15T08:05:46;6.81;90.06
62476;DHT22;50739;45.670;11.936;2024-02-15T08:10:48;7.03;89.65
62476;DHT22;50739;45.670;11.936;2024-02-15T08:15:53;7.21;88.92
62476;DHT22;50739;45.670;11.936;2024-02-15T08:20:57;7.45;88.28
62476;DHT22;50739;45.670;11.936;2024-02-15T08:25:59;7.67;88.10
62476;DHT22;50739;45.670;11.936;2024-02-15T08:31:04;7.84;87.59
62476;DHT22;50739;45.670;11.936;2024-02-15T08:36:08;8.03;87.05
62476;DHT22;50739;45.670;11.936;2024-02-15T08:41:12;8.14;86.86
62476;DHT22;50739;45.670;11.936;2024-02-15T08:46:16;8.35;85.89
62476;DHT22;50739;45.670;11.936;2024-02-15T08:51:20;8.39;86.03
62476;DHT22;50739;45.670;11.936;2024-02-15T08:56:23;8.38;86.18
62476;DHT22;50739;45.670;11.936;2024-02-15T09:01:27;8.52;86.90
62476;DHT22;50739;45.670;11.936;2024-02-15T09:06:31;8.69;87.16
62476;DHT22;50739;45.670;11.936;2024-02-15T09:11:33;8.81;86.95
62476;DHT22;50739;45.670;11.936;2024-02-15T09:16:38;8.96;86.44
62476;DHT22;50739;45.670;11.936;2024-02-15T09:21:41;9.14;85.69
62476;DHT22;50739;45.670;11.936;2024-02-15T09:26:44;9.34;84.76
62476;DHT22;50739;45.670;11.936;2024-02-15T09:31:48;9.48;83.18
62476;DHT22;50739;45.670;11.936;2024-02-15T09:36:50;9.65;82.46
62476;DHT22;50739;45.670;11.936;2024-02-15T09:41:53;9.80;82.65
62476;DHT22;50739;45.670;11.936;2024-02-15T09:47:03;9.94;83.07
62476;DHT22;50739;45.670;11.936;2024-02-15T09:52:07;10.00;82.13
62476;DHT22;50739;45.670;11.936;2024-02-15T09:57:12;10.21;83.39
62476;DHT22;50739;45.670;11.936;2024-02-15T10:02:16;10.28;81.81
62476;DHT22;50739;45.670;11.936;2024-02-15T10:07:20;10.31;82.41
62476;DHT22;50739;45.670;11.936;2024-02-15T10:12:22;10.40;82.65
62476;DHT22;50739;45.670;11.936;2024-02-15T10:17:29;10.51;81.33
62476;DHT22;50739;45.670;11.936;2024-02-15T10:22:36;10.71;81.09
62476;DHT22;50739;45.670;11.936;2024-02-15T10:27:41;10.79;79.87
62476;DHT22;50739;45.670;11.936;2024-02-15T10:32:45;10.75;81.31
62476;DHT22;50739;45.670;11.936;2024-02-15T10:37:49;10.83;80.87
62476;DHT22;50739;45.670;11.936;2024-02-15T10:42:52;10.95;79.38
62476;DHT22;50739;45.670;11.936;2024-02-15T10:47:59;11.21;77.91
62476;DHT22;50739;45.670;11.936;2024-02-15T10:53:07;11.17;78.30
62476;DHT22;50739;45.670;11.936;2024-02-15T10:58:19;11.31;77.14
62476;DHT22;50739;45.670;11.936;2024-02-15T11:03:29;11.34;78.31
62476;DHT22;50739;45.670;11.936;2024-02-15T11:08:34;11.45;79.26
62476;DHT22;50739;45.670;11.936;2024-02-15T11:13:37;11.69;78.85
62476;DHT22;50739;45.670;11.936;2024-02-15T11:18:44;11.86;78.24
62476;DHT22;50739;45.670;11.936;2024-02-15T11:23:49;11.85;78.78
62476;DHT22;50739;45.670;11.936;2024-02-15T11:28:52;11.81;78.50
62476;DHT22;50739;45.670;11.936;2024-02-15T11:33:57;11.82;78.48
62476;DHT22;50739;45.670;11.936;2024-02-15T11:39:00;11.87;78.60
62476;DHT22;50739;45.670;11.936;2024-02-15T11:44:06;11.97;78.84
62476;DHT22;50739;45.670;11.936;2024-02-15T11:49:14;12.27;77.33
62476;DHT22;50739;45.670;11.936;2024-02-15T11:54:20;12.37;76.40
62476;DHT22;50739;45.670;11.936;2024-02-15T11:59:23;12.40;76.15
62476;DHT22;50739;45.670;11.936;2024-02-15T12:04:34;12.47;76.10
62476;DHT22;50739;45.670;11.936;2024-02-15T12:09:58;12.40;76.07
62476;DHT22;50739;45.670;11.936;2024-02-15T12:15:18;12.40;75.24
62476;DHT22;50739;45.670;11.936;2024-02-15T12:20:39;12.58;75.06
62476;DHT22;50739;45.670;11.936;2024-02-15T12:25:42;12.65;74.62
62476;DHT22;50739;45.670;11.936;2024-02-15T12:30:44;12.75;74.95
62476;DHT22;50739;45.670;11.936;2024-02-15T12:35:49;12.82;74.69
62476;DHT22;50739;45.670;11.936;2024-02-15T12:40:52;12.98;74.98
62476;DHT22;50739;45.670;11.936;2024-02-15T12:45:54;13.10;74.58
62476;DHT22;50739;45.670;11.936;2024-02-15T12:50:59;13.13;74.69
62476;DHT22;50739;45.670;11.936;2024-02-15T12:56:01;13.27;75.14
62476;DHT22;50739;45.670;11.936;2024-02-15T13:01:05;13.36;75.44
62476;DHT22;50739;45.670;11.936;2024-02-15T13:06:08;13.47;75.14
62476;DHT22;50739;45.670;11.936;2024-02-15T13:11:11;13.92;74.92
62476;DHT22;50739;45.670;11.936;2024-02-15T13:16:16;14.05;74.31
62476;DHT22;50739;45.670;11.936;2024-02-15T13:21:20;14.33;73.52
62476;DHT22;50739;45.670;11.936;2024-02-15T13:26:25;14.67;72.99
62476;DHT22;50739;45.670;11.936;2024-02-15T13:31:27;14.85;72.43
62476;DHT22;50739;45.670;11.936;2024-02-15T13:36:32;15.30;71.20
62476;DHT22;50739;45.670;11.936;2024-02-15T13:41:35;15.90;68.94
62476;DHT22;50739;45.670;11.936;2024-02-15T13:46:37;16.30;68.08
62476;DHT22;50739;45.670;11.936;2024-02-15T13:51:41;16.73;66.38
62476;DHT22;50739;45.670;11.936;2024-02-15T13:56:45;16.77;66.39
62476;DHT22;50739;45.670;11.936;2024-02-15T14:01:47;17.10;64.29
62476;DHT22;50739;45.670;11.936;2024-02-15T14:06:53;17.56;63.02
62476;DHT22;50739;45.670;11.936;2024-02-15T14:11:57;16.83;64.73
62476;DHT22;50739;45.670;11.936;2024-02-15T14:16:59;16.85;64.52
62476;DHT22;50739;45.670;11.936;2024-02-15T14:22:03;16.69;64.93
62476;DHT22;50739;45.670;11.936;2024-02-15T14:27:09;16.30;65.28
62476;DHT22;50739;45.670;11.936;2024-02-15T14:32:12;16.09;66.29
62476;DHT22;50739;45.670;11.936;2024-02-15T14:37:33;16.53;64.51
62476;DHT22;50739;45.670;11.936;2024-02-15T14:42:35;16.30;65.03
62476;DHT22;50739;45.670;11.936;2024-02-15T14:47:39;15.59;66.90
62476;DHT22;50739;45.670;11.936;2024-02-15T14:52:44;15.70;67.02
62476;DHT22;50739;45.670;11.936;2024-02-15T14:57:47;15.40;67.47
62476;DHT22;50739;45.670;11.936;2024-02-15T15:02:49;15.44;65.73
62476;DHT22;50739;45.670;11.936;2024-02-15T15:07:53;14.80;69.08
62476;DHT22;50739;45.670;11.936;2024-02-15T15:13:13;14.68;68.81
62476;DHT22;50739;45.670;11.936;2024-02-15T15:18:15;14.81;69.22
62476;DHT22;50739;45.670;11.936;2024-02-15T15:23:20;14.61;70.49
62476;DHT22;50739;45.670;11.936;2024-02-15T15:28:23;14.61;70.97
62476;DHT22;50739;45.670;11.936;2024-02-15T15:33:25;15.11;68.77
62476;DHT22;50739;45.670;11.936;2024-02-15T15:38:29;14.73;70.25
62476;DHT22;50739;45.670;11.936;2024-02-15T15:43:32;14.08;72.12
62476;DHT22;50739;45.670;11.936;2024-02-15T15:48:34;13.79;72.76
62476;DHT22;50739;45.670;11.936;2024-02-15T15:53:39;13.64;73.62
62476;DHT22;50739;45.670;11.936;2024-02-15T15:58:41;13.48;74.04
62476;DHT22;50739;45.670;11.936;2024-02-15T16:03:48;13.37;74.74
62476;DHT22;50739;45.670;11.936;2024-02-15T16:08:53;13.22;74.74
62476;DHT22;50739;45.670;11.936;2024-02-15T16:13:55;13.06;75.26
62476;DHT22;50739;45.670;11.936;2024-02-15T16:18:57;12.87;75.59
62476;DHT22;50739;45.670;11.936;2024-02-15T16:24:02;12.64;76.39
62476;DHT22;50739;45.670;11.936;2024-02-15T16:29:04;12.44;77.24
62476;DHT22;50739;45.670;11.936;2024-02-15T16:34:07;12.29;78.30
62476;DHT22;50739;45.670;11.936;2024-02-15T16:39:11;12.14;78.99
62476;DHT22;50739;45.670;11.936;2024-02-15T16:44:13;12.10;79.82
62476;DHT22;50739;45.670;11.936;2024-02-15T16:49:16;12.07;80.07
62476;DHT22;50739;45.670;11.936;2024-02-15T16:54:20;11.85;80.54
62476;DHT22;50739;45.670;11.936;2024-02-15T16:59:22;11.69;81.00
62476;DHT22;50739;45.670;11.936;2024-02-15T17:04:25;11.64;81.86
62476;DHT22;50739;45.670;11.936;2024-02-15T17:09:29;11.44;82.40
62476;DHT22;50739;45.670;11.936;2024-02-15T17:14:31;11.34;82.60
62476;DHT22;50739;45.670;11.936;2024-02-15T17:19:36;11.06;83.74
62476;DHT22;50739;45.670;11.936;2024-02-15T17:24:41;11.02;83.81
62476;DHT22;50739;45.670;11.936;2024-02-15T17:29:44;10.95;84.39
62476;DHT22;50739;45.670;11.936;2024-02-15T17:34:46;10.92;84.57
62476;DHT22;50739;45.670;11.936;2024-02-15T17:39:50;10.83;85.41
62476;DHT22;50739;45.670;11.936;2024-02-15T17:44:52;10.72;85.26
62476;DHT22;50739;45.670;11.936;2024-02-15T17:49:55;10.66;85.78
62476;DHT22;50739;45.670;11.936;2024-02-15T17:54:59;10.69;86.01
62476;DHT22;50739;45.670;11.936;2024-02-15T18:00:02;10.54;86.53
62476;DHT22;50739;45.670;11.936;2024-02-15T18:05:05;10.65;86.69
62476;DHT22;50739;45.670;11.936;2024-02-15T18:10:09;10.54;86.90
62476;DHT22;50739;45.670;11.936;2024-02-15T18:15:12;10.42;86.83
62476;DHT22;50739;45.670;11.936;2024-02-15T18:20:23;10.45;86.99
62476;DHT22;50739;45.670;11.936;2024-02-15T18:25:27;10.31;87.44
62476;DHT22;50739;45.670;11.936;2024-02-15T18:30:29;10.20;87.84
62476;DHT22;50739;45.670;11.936;2024-02-15T18:35:34;10.07;87.98
62476;DHT22;50739;45.670;11.936;2024-02-15T18:40:38;10.11;87.94
62476;DHT22;50739;45.670;11.936;2024-02-15T18:45:41;10.06;87.73
62476;DHT22;50739;45.670;11.936;2024-02-15T18:50:43;10.09;88.06
62476;DHT22;50739;45.670;11.936;2024-02-15T18:55:47;10.03;88.54
62476;DHT22;50739;45.670;11.936;2024-02-15T19:00:50;9.89;88.97
62476;DHT22;50739;45.670;11.936;2024-02-15T19:05:52;9.86;88.99
62476;DHT22;50739;45.670;11.936;2024-02-15T19:10:56;9.80;88.93
62476;DHT22;50739;45.670;11.936;2024-02-15T19:16:01;9.73;89.67
62476;DHT22;50739;45.670;11.936;2024-02-15T19:21:08;9.76;89.76
62476;DHT22;50739;45.670;11.936;2024-02-15T19:26:12;9.72;89.65
62476;DHT22;50739;45.670;11.936;2024-02-15T19:31:14;9.58;89.60
62476;DHT22;50739;45.670;11.936;2024-02-15T19:36:17;9.45;89.99
62476;DHT22;50739;45.670;11.936;2024-02-15T19:41:26;9.48;90.22
62476;DHT22;50739;45.670;11.936;2024-02-15T19:46:30;9.36;90.11
62476;DHT22;50739;45.670;11.936;2024-02-15T19:51:33;9.31;90.06
62476;DHT22;50739;45.670;11.936;2024-02-15T19:56:37;9.25;90.73
62476;DHT22;50739;45.670;11.936;2024-02-15T20:01:40;9.30;90.66
62476;DHT22;50739;45.670;11.936;2024-02-15T20:06:44;9.17;90.49
62476;DHT22;50739;45.670;11.936;2024-02-15T20:11:49;9.24;90.68
62476;DHT22;50739;45.670;11.936;2024-02-15T20:16:51;9.30;90.66
62476;DHT22;50739;45.670;11.936;2024-02-15T20:21:55;9.42;90.68
62476;DHT22;50739;45.670;11.936;2024-02-15T20:26:59;9.21;90.45
62476;DHT22;50739;45.670;11.936;2024-02-15T20:32:02;9.03;90.40
62476;DHT22;50739;45.670;11.936;2024-02-15T20:37:05;8.84;90.54
62476;DHT22;50739;45.670;11.936;2024-02-15T20:42:09;8.80;90.94
62476;DHT22;50739;45.670;11.936;2024-02-15T20:47:11;8.60;90.91
62476;DHT22;50739;45.670;11.936;2024-02-15T20:52:14;8.65;91.33
62476;DHT22;50739;45.670;11.936;2024-02-15T20:57:17;8.53;91.24
62476;DHT22;50739;45.670;11.936;2024-02-15T21:02:20;8.66;90.82
62476;DHT22;50739;45.670;11.936;2024-02-15T21:07:24;8.63;91.10
62476;DHT22;50739;45.670;11.936;2024-02-15T21:12:28;8.25;91.13
62476;DHT22;50739;45.670;11.936;2024-02-15T21:17:30;8.41;91.46
62476;DHT22;50739;45.670;11.936;2024-02-15T21:22:32;8.48;91.30
62476;DHT22;50739;45.670;11.936;2024-02-15T21:27:36;8.45;90.87
62476;DHT22;50739;45.670;11.936;2024-02-15T21:32:40;8.37;91.52
62476;DHT22;50739;45.670;11.936;2024-02-15T21:37:44;8.42;91.28
62476;DHT22;50739;45.670;11.936;2024-02-15T21:42:49;8.31;91.27
62476;DHT22;50739;45.670;11.936;2024-02-15T21:47:53;8.24;91.06
62476;DHT22;50739;45.670;11.936;2024-02-15T21:52:55;8.24;90.52
62476;DHT22;50739;45.670;11.936;2024-02-15T21:58:00;8.20;90.96
62476;DHT22;50739;45.670;11.936;2024-02-15T22:03:02;8.14;90.60
62476;DHT22;50739;45.670;11.936;2024-02-15T22:08:05;7.83;91.01
62476;DHT22;50739;45.670;11.936;2024-02-15T22:13:09;7.98;90.92
62476;DHT22;50739;45.670;11.936;2024-02-15T22:18:14;7.95;90.56
62476;DHT22;50739;45.670;11.936;2024-02-15T22:23:18;7.95;90.69
62476;DHT22;50739;45.670;11.936;2024-02-15T22:28:22;7.94;90.95
62476;DHT22;50739;45.670;11.936;2024-02-15T22:33:24;7.91;90.53
62476;DHT22;50739;45.670;11.936;2024-02-15T22:38:27;7.76;90.67
62476;DHT22;50739;45.670;11.936;2024-02-15T22:43:31;7.65;91.62
62476;DHT22;50739;45.670;11.936;2024-02-15T22:48:35;7.76;90.56
62476;DHT22;50739;45.670;11.936;2024-02-15T22:53:38;7.76;90.76
62476;DHT22;50739;45.670;11.936;2024-02-15T22:58:43;7.63;90.43
62476;DHT22;50739;45.670;11.936;2024-02-15T23:03:46;7.72;90.22
62476;DHT22;50739;45.670;11.936;2024-02-15T23:08:48;7.56;90.21
62476;DHT22;50739;45.670;11.936;2024-02-15T23:13:52;7.34;90.25
62476;DHT22;50739;45.670;11.936;2024-02-15T23:18:55;7.28;92.05
62476;DHT22;50739;45.670;11.936;2024-02-15T23:23:57;7.48;90.71
62476;DHT22;50739;45.670;11.936;2024-02-15T23:29:01;7.69;90.44
62476;DHT22;50739;45.670;11.936;2024-02-15T23:34:03;7.67;89.97
62476;DHT22;50739;45.670;11.936;2024-02-15T23:39:06;7.56;90.62
62476;DHT22;50739;45.670;11.936;2024-02-15T23:44:32;7.52;90.38
62476;DHT22;50739;45.670;11.936;2024-02-15T23:49:35;7.31;90.52
62476;DHT22;50739;45.670;11.936;2024-02-15T23:54:37;7.36;90.72
62476;DHT22;50739;45.670;11.936;2024-02-15T23:59:41;7.38;90.37
